createdAt,value
2018-01-26T00:01:41.761Z,7.10
2018-01-26T00:04:08.242Z,12.13
2018-01-26T00:06:34.653Z,12.40
2018-01-26T00:09:01.081Z,7.30
2018-01-26T00:11:28.265Z,14.77
2018-01-26T00:13:54.657Z,9.27
2018-01-26T00:16:21.098Z,11.60
2018-01-26T00:18:47.497Z,11.97
2018-01-26T00:21:13.906Z,11.50
2018-01-26T00:23:40.297Z,5.43
2018-01-26T00:26:06.729Z,16.07
2018-01-26T00:28:33.140Z,11.30
2018-01-26T00:31:00.297Z,10.13
2018-01-26T00:33:26.733Z,16.93
2018-01-26T00:35:53.235Z,11.07
2018-01-26T00:38:19.653Z,14.17
2018-01-26T00:40:46.081Z,8.73
2018-01-26T00:43:13.319Z,11.73
2018-01-26T00:45:39.735Z,11.57
2018-01-26T00:48:06.141Z,10.77
2018-01-26T00:50:34.175Z,16.40
2018-01-26T00:53:00.729Z,12.13
2018-01-26T00:55:27.131Z,7.90
2018-01-26T00:57:53.543Z,9.63
2018-01-26T01:00:20.030Z,14.70
2018-01-26T01:02:46.436Z,8.20
2018-01-26T01:05:14.338Z,16.47
2018-01-26T01:07:41.510Z,13.07
2018-01-26T01:10:07.922Z,10.27
2018-01-26T01:12:35.130Z,13.63
2018-01-26T01:15:01.587Z,22.30
2018-01-26T01:17:27.994Z,8.90
2018-01-26T01:19:55.196Z,16.30
2018-01-26T01:22:21.623Z,10.63
2018-01-26T01:24:48.078Z,13.90
2018-01-26T01:27:14.490Z,8.77
2018-01-26T01:29:41.726Z,12.53
2018-01-26T01:32:08.144Z,20.37
2018-01-26T01:34:36.058Z,14.03
2018-01-26T01:37:03.976Z,17.10
2018-01-26T01:39:30.399Z,10.10
2018-01-26T01:41:57.558Z,14.97
2018-01-26T01:44:24.690Z,18.97
2018-01-26T01:46:51.138Z,20.90
2018-01-26T01:49:17.549Z,18.70
2018-01-26T01:51:44.047Z,21.83
2018-01-26T01:54:11.210Z,14.47
2018-01-26T01:56:38.387Z,15.30
2018-01-26T01:59:04.840Z,12.80
2018-01-26T02:01:31.302Z,23.53
2018-01-26T02:03:57.713Z,24.30
2018-01-26T02:06:24.117Z,21.70
2018-01-26T02:08:52.037Z,11.20
2018-01-26T02:11:19.202Z,13.53
2018-01-26T02:13:46.409Z,13.40
2018-01-26T02:16:12.829Z,17.30
2018-01-26T02:18:39.260Z,12.77
2018-01-26T02:21:05.710Z,9.93
2018-01-26T02:23:32.200Z,13.90
2018-01-26T02:25:58.683Z,12.60
2018-01-26T02:28:25.953Z,32.53
2018-01-26T02:30:52.473Z,28.10
2018-01-26T02:33:19.702Z,15.13
2018-01-26T02:35:46.222Z,9.50
2018-01-26T02:38:12.707Z,22.53
2018-01-26T02:40:39.904Z,19.90
2018-01-26T02:43:06.313Z,20.50
2018-01-26T02:45:32.774Z,17.57
2018-01-26T02:47:59.272Z,16.83
2018-01-26T02:50:25.695Z,15.57
2018-01-26T02:52:52.197Z,23.20
2018-01-26T02:55:19.402Z,19.50
2018-01-26T02:57:47.363Z,21.70
2018-01-26T03:00:14.526Z,18.13
2018-01-26T03:02:40.970Z,22.00
2018-01-26T03:05:07.425Z,12.40
2018-01-26T03:07:33.838Z,19.00
2018-01-26T03:10:01.017Z,29.63
2018-01-26T03:12:27.514Z,19.10
2018-01-26T03:14:53.919Z,17.83
2018-01-26T03:17:20.381Z,23.90
2018-01-26T03:19:46.838Z,16.10
2018-01-26T03:22:13.302Z,35.90
2018-01-26T03:24:40.505Z,32.13
2018-01-26T03:27:06.918Z,24.10
2018-01-26T03:29:34.099Z,18.70
2018-01-26T03:32:00.531Z,24.53
2018-01-26T03:34:26.978Z,18.43
2018-01-26T03:36:53.398Z,28.63
2018-01-26T03:39:19.922Z,26.83
2018-01-26T03:41:46.361Z,23.63
2018-01-26T03:44:12.790Z,21.90
2018-01-26T03:46:39.215Z,21.10
2018-01-26T03:49:05.723Z,23.97
2018-01-26T03:51:32.882Z,17.20
2018-01-26T03:54:00.083Z,25.33
2018-01-26T03:56:26.534Z,27.50
2018-01-26T03:58:52.963Z,25.77
2018-01-26T04:01:19.468Z,20.43
2018-01-26T04:03:47.211Z,32.10
2018-01-26T04:06:13.650Z,25.13
2018-01-26T04:08:40.078Z,23.23
2018-01-26T04:11:06.560Z,25.80
2018-01-26T04:13:33.737Z,35.53
2018-01-26T04:16:00.232Z,32.10
2018-01-26T04:18:26.634Z,23.40
2018-01-26T04:20:53.791Z,24.03
2018-01-26T04:23:21.005Z,24.53
2018-01-26T04:25:47.421Z,22.13
2018-01-26T04:28:14.660Z,22.57
2018-01-26T04:30:41.935Z,27.33
2018-01-26T04:33:08.470Z,32.07
2018-01-26T04:35:35.093Z,26.10
2018-01-26T04:38:01.656Z,31.03
2018-01-26T04:40:28.886Z,22.03
2018-01-26T04:42:55.348Z,42.17
2018-01-26T04:45:21.882Z,22.43
2018-01-26T04:47:48.333Z,33.13
2018-01-26T04:50:14.798Z,31.47
2018-01-26T04:52:41.214Z,36.90
2018-01-26T04:55:07.708Z,30.37
2018-01-26T04:57:34.902Z,36.50
2018-01-26T05:00:01.377Z,30.23
2018-01-26T05:02:28.018Z,25.60
2018-01-26T05:04:54.502Z,35.40
2018-01-26T05:07:20.999Z,32.50
2018-01-26T05:09:47.480Z,35.93
2018-01-26T05:12:15.434Z,30.13
2018-01-26T05:14:42.343Z,32.20
2018-01-26T05:17:08.738Z,29.00
2018-01-26T05:19:36.741Z,33.17
2018-01-26T05:22:04.602Z,25.73
2018-01-26T05:24:32.218Z,23.90
2018-01-26T05:26:58.678Z,37.67
2018-01-26T05:29:25.164Z,25.97
2018-01-26T05:31:53.150Z,52.87
2018-01-26T05:34:21.077Z,22.83
2018-01-26T05:36:47.586Z,29.47
2018-01-26T05:39:14.851Z,20.53
2018-01-26T05:41:42.808Z,24.33
2018-01-26T05:44:09.234Z,33.57
2018-01-26T05:46:35.667Z,29.43
2018-01-26T05:49:02.164Z,41.27
2018-01-26T05:51:28.723Z,32.77
2018-01-26T05:53:56.631Z,38.70
2018-01-26T05:56:23.106Z,38.53
2018-01-26T05:58:49.542Z,44.43
2018-01-26T06:01:16.062Z,46.80
2018-01-26T06:03:42.572Z,27.17
2018-01-26T06:06:09.819Z,34.07
2018-01-26T06:08:36.376Z,33.73
2018-01-26T06:11:04.892Z,33.27
2018-01-26T06:13:31.395Z,39.80
2018-01-26T06:15:57.826Z,41.60
2018-01-26T06:18:24.331Z,40.53
2018-01-26T06:20:50.834Z,49.27
2018-01-26T06:23:17.308Z,32.23
2018-01-26T06:25:43.850Z,34.33
2018-01-26T06:28:10.454Z,33.83
2018-01-26T06:30:36.927Z,33.50
2018-01-26T06:33:04.179Z,38.03
2018-01-26T06:35:30.724Z,31.60
2018-01-26T06:37:57.164Z,37.77
2018-01-26T06:40:23.751Z,44.60
2018-01-26T06:42:51.006Z,63.67
2018-01-26T06:45:18.310Z,55.77
2018-01-26T06:47:44.844Z,36.77
2018-01-26T06:50:11.405Z,43.43
2018-01-26T06:52:38.112Z,45.70
2018-01-26T06:55:05.626Z,37.63
2018-01-26T06:57:32.294Z,54.47
2018-01-26T06:59:58.959Z,35.23
2018-01-26T07:02:25.726Z,42.53
2018-01-26T07:04:54.227Z,41.33
2018-01-26T07:07:20.932Z,45.90
2018-01-26T07:09:48.496Z,44.23
2018-01-26T07:12:15.214Z,31.57
2018-01-26T07:14:42.071Z,35.10
2018-01-26T07:17:08.840Z,36.67
2018-01-26T07:19:35.666Z,40.67
2018-01-26T07:22:02.507Z,40.70
2018-01-26T07:24:30.719Z,38.40
2018-01-26T07:26:57.653Z,36.03
2018-01-26T07:29:25.388Z,26.33
2018-01-26T07:31:52.033Z,38.83
2018-01-26T07:34:18.798Z,31.90
2018-01-26T07:36:46.406Z,39.60
2018-01-26T07:39:13.884Z,51.60
2018-01-26T07:41:40.477Z,27.33
2018-01-26T07:44:09.716Z,33.27
2018-01-26T07:46:36.380Z,34.57
2018-01-26T07:49:02.998Z,25.20
2018-01-26T07:51:31.023Z,40.57
2018-01-26T07:53:58.821Z,31.60
2018-01-26T07:56:26.376Z,29.70
2018-01-26T07:58:52.843Z,25.83
2018-01-26T08:01:19.400Z,26.33
2018-01-26T08:03:47.408Z,33.60
2018-01-26T08:06:14.848Z,27.97
2018-01-26T08:08:42.885Z,40.33
2018-01-26T08:11:09.593Z,31.30
2018-01-26T08:13:36.613Z,22.83
2018-01-26T08:16:05.210Z,27.67
2018-01-26T08:18:32.646Z,21.33
2018-01-26T08:21:00.432Z,28.83
2018-01-26T08:23:26.946Z,26.40
2018-01-26T08:25:54.293Z,24.27
2018-01-26T08:28:22.633Z,26.83
2018-01-26T08:30:49.267Z,30.20
2018-01-26T08:33:16.649Z,25.47
2018-01-26T08:35:44.486Z,31.50
2018-01-26T08:38:11.894Z,28.20
2018-01-26T08:40:39.266Z,22.20
2018-01-26T08:43:05.863Z,23.20
2018-01-26T08:45:32.489Z,26.57
2018-01-26T08:47:59.040Z,16.27
2018-01-26T08:50:25.727Z,22.50
2018-01-26T08:52:53.907Z,29.27
2018-01-26T08:55:20.674Z,21.60
2018-01-26T08:57:47.414Z,33.20
2018-01-26T09:00:14.087Z,20.13
2018-01-26T09:02:40.766Z,18.07
2018-01-26T09:05:07.422Z,16.47
2018-01-26T09:07:34.054Z,23.93
2018-01-26T09:10:01.555Z,21.93
2018-01-26T09:12:29.396Z,19.50
2018-01-26T09:14:56.065Z,22.23
2018-01-26T09:17:22.700Z,18.77
2018-01-26T09:19:51.393Z,16.10
2018-01-26T09:22:19.104Z,16.57
2018-01-26T09:24:45.847Z,16.10
2018-01-26T09:27:13.360Z,14.73
2018-01-26T09:29:40.733Z,29.13
2018-01-26T09:32:07.400Z,17.00
2018-01-26T09:34:34.137Z,11.60
2018-01-26T09:37:00.717Z,11.13
2018-01-26T09:39:27.302Z,11.20
2018-01-26T09:41:53.960Z,16.93
2018-01-26T09:44:21.331Z,20.37
2018-01-26T09:46:48.765Z,11.47
2018-01-26T09:49:15.578Z,17.07
2018-01-26T09:51:44.342Z,11.20
2018-01-26T09:54:11.036Z,13.77
2018-01-26T09:56:37.640Z,14.43
2018-01-26T09:59:04.161Z,15.20
2018-01-26T10:01:30.860Z,14.33
2018-01-26T10:03:57.411Z,14.07
2018-01-26T10:06:23.877Z,13.13
2018-01-26T10:08:54.122Z,11.93
2018-01-26T10:11:21.713Z,20.50
2018-01-26T10:13:48.268Z,24.10
2018-01-26T10:16:14.951Z,17.10
2018-01-26T10:18:41.599Z,14.20
2018-01-26T10:21:08.270Z,16.43
2018-01-26T10:23:35.722Z,17.40
2018-01-26T10:26:02.508Z,20.83
2018-01-26T10:28:30.032Z,15.47
2018-01-26T10:30:57.642Z,12.97
2018-01-26T10:33:25.031Z,17.90
2018-01-26T10:35:52.314Z,20.00
2018-01-26T10:38:20.503Z,10.90
2018-01-26T10:40:47.229Z,13.80
2018-01-26T10:43:14.531Z,14.03
2018-01-26T10:45:41.852Z,13.20
2018-01-26T10:48:09.141Z,11.30
2018-01-26T10:50:35.707Z,12.23
2018-01-26T10:53:02.272Z,17.63
2018-01-26T10:55:30.711Z,13.00
2018-01-26T10:57:57.275Z,10.90
2018-01-26T11:00:24.692Z,17.60
2018-01-26T11:02:51.486Z,17.30
2018-01-26T11:05:18.989Z,15.27
2018-01-26T11:07:45.605Z,14.93
2018-01-26T11:10:12.778Z,10.17
2018-01-26T11:12:40.782Z,12.83
2018-01-26T11:15:08.472Z,13.83
2018-01-26T11:17:35.199Z,16.50
2018-01-26T11:20:03.702Z,11.70
2018-01-26T11:22:30.447Z,9.33
2018-01-26T11:24:57.688Z,13.23
2018-01-26T11:27:26.791Z,11.47
2018-01-26T11:29:54.815Z,22.23
2018-01-26T11:32:23.132Z,11.07
2018-01-26T11:34:51.545Z,17.67
2018-01-26T11:37:18.193Z,18.20
2018-01-26T11:39:45.198Z,10.80
2018-01-26T11:42:11.801Z,12.43
2018-01-26T11:44:38.556Z,18.50
2018-01-26T11:47:05.741Z,13.00
2018-01-26T11:49:32.318Z,14.10
2018-01-26T11:51:59.246Z,26.17
2018-01-26T11:54:26.059Z,23.20
2018-01-26T11:56:52.626Z,12.20
2018-01-26T11:59:21.077Z,18.30
2018-01-26T12:01:48.812Z,14.00
2018-01-26T12:04:15.397Z,19.27
2018-01-26T12:06:42.137Z,18.73
2018-01-26T12:09:08.803Z,15.43
2018-01-26T12:11:36.121Z,16.10
2018-01-26T12:14:06.046Z,17.43
2018-01-26T12:16:33.199Z,11.93
2018-01-26T12:19:00.631Z,21.63
2018-01-26T12:21:27.951Z,20.20
2018-01-26T12:23:55.149Z,18.13
2018-01-26T12:26:22.204Z,10.90
2018-01-26T12:28:49.266Z,14.17
2018-01-26T12:31:16.750Z,12.30
2018-01-26T12:33:44.431Z,10.80
2018-01-26T12:36:13.615Z,26.37
2018-01-26T12:38:40.403Z,18.33
2018-01-26T12:41:14.973Z,14.50
2018-01-26T12:43:41.652Z,14.27
2018-01-26T12:46:08.339Z,15.83
2018-01-26T12:48:35.910Z,14.23
2018-01-26T12:51:02.515Z,12.03
2018-01-26T12:53:29.399Z,14.53
2018-01-26T12:55:57.093Z,22.80
2018-01-26T12:58:24.939Z,20.97
2018-01-26T13:00:52.286Z,13.40
2018-01-26T13:03:19.656Z,22.37
2018-01-26T13:05:46.229Z,16.70
2018-01-26T13:08:14.001Z,17.17
2018-01-26T13:10:43.273Z,10.40
2018-01-26T13:13:09.799Z,15.27
2018-01-26T13:18:34.290Z,15.93
2018-01-26T13:21:01.696Z,18.83
2018-01-26T13:23:28.226Z,14.80
2018-01-26T13:25:54.848Z,13.53
2018-01-26T13:28:21.797Z,11.90
2018-01-26T13:30:48.663Z,9.70
2018-01-26T13:33:15.717Z,12.60
2018-01-26T13:35:43.416Z,15.23
2018-01-26T13:38:10.090Z,19.70
2018-01-26T13:40:36.589Z,13.90
2018-01-26T13:43:03.149Z,13.93
2018-01-26T13:45:30.526Z,22.23
2018-01-26T13:47:57.870Z,12.13
2018-01-26T13:50:24.402Z,17.27
2018-01-26T13:52:51.022Z,22.40
2018-01-26T13:55:17.531Z,14.10
2018-01-26T13:57:44.138Z,15.10
2018-01-26T14:00:10.755Z,17.40
2018-01-26T14:02:38.062Z,21.40
2018-01-26T14:05:06.371Z,22.03
2018-01-26T14:07:33.905Z,13.33
2018-01-26T14:10:00.642Z,15.57
2018-01-26T14:12:27.296Z,15.00
2018-01-26T14:14:54.575Z,12.07
2018-01-26T14:17:21.218Z,17.37
2018-01-26T14:19:47.969Z,13.50
2018-01-26T14:22:14.574Z,13.23
2018-01-26T14:24:41.147Z,15.33
2018-01-26T14:27:07.652Z,14.50
2018-01-26T14:29:35.035Z,11.30
2018-01-26T14:32:01.648Z,16.67
2018-01-26T14:34:28.362Z,14.73
2018-01-26T14:36:55.794Z,13.00
2018-01-26T14:39:22.319Z,11.00
2018-01-26T14:41:49.307Z,11.00
2018-01-26T14:44:16.790Z,14.03
2018-01-26T14:46:43.595Z,17.63
2018-01-26T14:49:12.101Z,29.53
2018-01-26T14:51:39.628Z,14.07
2018-01-26T14:54:06.187Z,11.90
2018-01-26T14:56:32.781Z,11.17
2018-01-26T14:59:00.134Z,17.73
2018-01-26T15:01:27.915Z,16.60
2018-01-26T15:03:55.548Z,17.37
2018-01-26T15:06:22.965Z,24.23
2018-01-26T15:08:49.687Z,14.30
2018-01-26T15:11:16.312Z,13.43
2018-01-26T15:13:42.903Z,16.00
2018-01-26T15:16:10.394Z,21.17
2018-01-26T15:18:37.717Z,25.77
2018-01-26T15:21:05.132Z,15.27
2018-01-26T15:23:32.527Z,20.90
2018-01-26T15:25:59.084Z,21.87
2018-01-26T15:28:26.446Z,18.93
2018-01-26T15:30:52.996Z,14.23
2018-01-26T15:33:20.447Z,18.33
2018-01-26T15:35:47.776Z,18.37
2018-01-26T15:38:14.409Z,15.03
2018-01-26T15:40:41.131Z,14.73
2018-01-26T15:43:08.478Z,21.37
2018-01-26T15:45:35.523Z,15.37
2018-01-26T15:48:02.558Z,16.50
2018-01-26T15:50:30.313Z,27.00
2018-01-26T15:52:56.876Z,10.10
2018-01-26T15:55:24.441Z,18.10
2018-01-26T15:57:52.979Z,15.87
2018-01-26T16:00:19.735Z,22.63
2018-01-26T16:02:46.478Z,20.73
2018-01-26T16:05:13.224Z,11.50
2018-01-26T16:07:41.290Z,19.47
2018-01-26T16:10:09.572Z,17.50
2018-01-26T16:12:36.592Z,16.20
2018-01-26T16:15:04.307Z,10.50
2018-01-26T16:17:32.997Z,14.63
2018-01-26T16:20:03.725Z,18.03
2018-01-26T16:22:31.071Z,15.60
2018-01-26T16:24:57.900Z,14.53
2018-01-26T16:27:25.212Z,10.10
2018-01-26T16:29:52.755Z,15.77
2018-01-26T16:32:19.807Z,9.70
2018-01-26T16:34:47.051Z,11.53
2018-01-26T16:37:13.722Z,14.53
2018-01-26T16:39:40.451Z,15.90
2018-01-26T16:42:07.145Z,15.03
2018-01-26T16:44:35.203Z,15.00
2018-01-26T16:47:01.682Z,18.87
2018-01-26T16:49:28.191Z,18.77
2018-01-26T16:51:54.709Z,13.03
2018-01-26T16:54:21.189Z,17.80
2018-01-26T16:56:47.817Z,11.60
2018-01-26T16:59:15.167Z,14.03
2018-01-26T17:01:41.685Z,18.90
2018-01-26T17:04:08.460Z,14.50
2018-01-26T17:06:36.084Z,12.30
2018-01-26T17:09:03.117Z,15.60
2018-01-26T17:11:29.985Z,17.50
2018-01-26T17:13:56.480Z,16.80
2018-01-26T17:16:23.694Z,14.80
2018-01-26T17:18:50.301Z,20.00
2018-01-26T17:21:16.738Z,17.37
2018-01-26T17:23:43.199Z,16.40
2018-01-26T17:26:10.375Z,23.03
2018-01-26T17:28:37.668Z,29.53
2018-01-26T17:31:04.304Z,21.90
2018-01-26T17:33:31.003Z,22.77
2018-01-26T17:35:57.677Z,19.70
2018-01-26T17:38:24.958Z,28.07
2018-01-26T17:40:52.203Z,22.20
2018-01-26T17:43:18.658Z,23.73
2018-01-26T17:45:46.293Z,19.30
2018-01-26T17:48:13.406Z,40.17
2018-01-26T17:50:39.910Z,23.63
2018-01-26T17:53:06.418Z,17.30
2018-01-26T17:55:33.609Z,21.37
2018-01-26T17:58:00.823Z,15.80
2018-01-26T18:00:27.362Z,22.13
2018-01-26T18:02:53.872Z,28.17
2018-01-26T18:05:21.116Z,33.53
2018-01-26T18:07:48.402Z,26.47
2018-01-26T18:10:14.897Z,33.23
2018-01-26T18:12:41.462Z,20.17
2018-01-26T18:15:07.881Z,25.30
2018-01-26T18:17:34.303Z,25.10
2018-01-26T18:20:01.473Z,22.00
2018-01-26T18:22:28.645Z,21.03
2018-01-26T18:24:55.077Z,22.03
2018-01-26T18:27:21.852Z,21.60
2018-01-26T18:29:48.308Z,18.10
2018-01-26T18:32:14.808Z,23.90
2018-01-26T18:34:41.324Z,22.77
2018-01-26T18:37:08.126Z,29.13
2018-01-26T18:39:35.324Z,24.33
2018-01-26T18:42:01.933Z,23.50
2018-01-26T18:44:29.267Z,23.40
2018-01-26T18:46:55.850Z,24.27
2018-01-26T18:49:23.055Z,29.60
2018-01-26T18:51:49.842Z,29.23
2018-01-26T18:54:16.601Z,24.37
2018-01-26T18:56:43.287Z,30.60
2018-01-26T18:59:10.422Z,26.13
2018-01-26T19:01:37.277Z,32.93
2018-01-26T19:04:04.435Z,43.97
2018-01-26T19:06:30.917Z,33.47
2018-01-26T19:08:58.199Z,36.40
2018-01-26T19:11:25.625Z,30.57
2018-01-26T19:13:53.395Z,39.90
2018-01-26T19:16:19.991Z,31.77
2018-01-26T19:18:46.500Z,42.50
2018-01-26T19:21:13.685Z,34.20
2018-01-26T19:23:40.342Z,39.33
2018-01-26T19:26:06.842Z,37.30
2018-01-26T19:28:34.193Z,36.07
2018-01-26T19:31:00.760Z,43.17
2018-01-26T19:33:27.178Z,42.20
2018-01-26T19:35:54.199Z,51.10
2018-01-26T19:38:20.624Z,73.47
2018-01-26T19:40:47.925Z,61.00
2018-01-26T19:43:14.398Z,51.37
2018-01-26T19:45:41.049Z,40.90
2018-01-26T19:48:07.469Z,56.90
2018-01-26T19:50:34.007Z,75.27
2018-01-26T19:53:00.505Z,65.13
2018-01-26T19:55:27.109Z,51.20
2018-01-26T19:57:54.454Z,61.80
2018-01-26T20:00:21.725Z,64.97
2018-01-26T20:02:48.288Z,46.87
2018-01-26T20:08:34.143Z,43.73
2018-01-26T20:11:00.616Z,43.53
2018-01-26T20:13:27.913Z,38.33
2018-01-26T20:15:54.501Z,34.00
2018-01-26T20:18:21.059Z,38.87
2018-01-26T20:20:47.624Z,38.60
2018-01-26T20:23:14.095Z,43.67
2018-01-26T20:25:41.401Z,44.90
2018-01-26T20:28:07.949Z,46.07
2018-01-26T20:30:34.424Z,57.60
2018-01-26T20:33:00.922Z,75.47
2018-01-26T20:35:28.145Z,74.10
2018-01-26T20:37:56.079Z,64.57
2018-01-26T20:40:22.597Z,69.00
2018-01-26T20:42:49.552Z,87.70
2018-01-26T20:45:16.786Z,74.40
2018-01-26T20:47:43.256Z,77.70
2018-01-26T20:50:09.980Z,63.27
2018-01-26T20:52:36.627Z,60.77
2018-01-26T20:55:03.161Z,59.50
2018-01-26T20:57:29.596Z,59.37
2018-01-26T20:59:56.052Z,67.87
2018-01-26T21:02:22.568Z,54.43
2018-01-26T21:04:49.010Z,49.67
2018-01-26T21:07:16.215Z,57.40
2018-01-26T21:09:42.728Z,37.90
2018-01-26T21:12:09.622Z,39.53
2018-01-26T21:14:36.148Z,41.93
2018-01-26T21:17:02.574Z,45.70
2018-01-26T21:19:36.609Z,72.03
2018-01-26T21:22:03.304Z,62.87
2018-01-26T21:24:29.764Z,58.17
2018-01-26T21:26:56.233Z,57.33
2018-01-26T21:29:22.664Z,77.57
2018-01-26T21:31:49.905Z,54.00
2018-01-26T21:34:16.353Z,36.50
2018-01-26T21:36:44.297Z,46.90
2018-01-26T21:39:10.745Z,38.77
2018-01-26T21:41:37.196Z,55.33
2018-01-26T21:44:04.163Z,32.03
2018-01-26T21:46:31.382Z,41.63
2018-01-26T21:48:58.569Z,39.43
2018-01-26T21:51:25.027Z,34.70
2018-01-26T21:53:51.505Z,28.97
2018-01-26T21:56:18.765Z,30.83
2018-01-26T21:58:45.262Z,33.83
2018-01-26T22:01:11.801Z,41.80
2018-01-26T22:03:38.296Z,29.30
2018-01-26T22:06:11.141Z,37.50
2018-01-26T22:08:37.813Z,41.23
2018-01-26T22:11:04.320Z,30.47
2018-01-26T22:13:31.550Z,54.20
2018-01-26T22:15:58.154Z,49.90
2018-01-26T22:18:24.623Z,39.20
2018-01-26T22:20:51.114Z,47.10
2018-01-26T22:23:18.381Z,80.03
2018-01-26T22:25:44.812Z,74.33
2018-01-26T22:28:12.259Z,56.30
2018-01-26T22:30:38.839Z,60.73
2018-01-26T22:33:06.036Z,76.07
2018-01-26T22:35:32.514Z,71.50
2018-01-26T22:37:58.994Z,44.90
2018-01-26T22:40:26.222Z,34.77
2018-01-26T22:42:52.729Z,35.43
2018-01-26T22:45:19.284Z,41.83
2018-01-26T22:47:45.793Z,36.33
2018-01-26T22:50:13.037Z,52.17
2018-01-26T22:52:39.515Z,53.50
2018-01-26T22:55:06.018Z,39.03
2018-01-26T22:57:32.556Z,31.17
2018-01-26T22:59:59.042Z,29.70
2018-01-26T23:02:26.271Z,46.20
2018-01-26T23:04:54.219Z,49.20
2018-01-26T23:07:20.710Z,49.17
2018-01-26T23:09:47.466Z,39.10
2018-01-26T23:12:13.929Z,42.13
2018-01-26T23:14:41.125Z,32.93
2018-01-26T23:17:08.361Z,33.23
2018-01-26T23:19:34.788Z,34.80
2018-01-26T23:22:01.271Z,35.30
2018-01-26T23:24:27.685Z,49.57
2018-01-26T23:26:55.937Z,119.73
2018-01-26T23:29:22.363Z,67.10
2018-01-26T23:31:48.786Z,78.37
2018-01-26T23:34:15.954Z,73.27
2018-01-26T23:36:42.386Z,46.50
2018-01-26T23:39:09.404Z,57.83
2018-01-26T23:41:35.839Z,46.90
2018-01-26T23:44:02.303Z,36.57
2018-01-26T23:46:28.863Z,43.87
2018-01-26T23:48:55.344Z,32.07
2018-01-26T23:51:22.524Z,34.20
2018-01-26T23:53:49.192Z,27.80
2018-01-26T23:56:15.748Z,36.40
2018-01-26T23:58:42.926Z,30.43
